Time;durP1;ratioP1;P1;durP2;ratioP2;P2;SDS_P1;SDS_P2;PMS_P1;PMS_P2;Temp;Humidity;BMP_temperature;BMP_pressure;BME280_temperature;BME280_humidity;BME280_pressure;Samples;Min_cycle;Max_cycle;Signal;HPM_P1;HPM_P2
2024/03/04 00:01:30;;;;;;;41.85;27.42;;;;;;;10.50;62.26;98733.13;6188831;23;20396;-91
2024/03/04 00:03:57;;;;;;;42.10;27.02;;;;;;;10.49;61.07;98725.34;6189456;23;20436;-92
2024/03/04 00:06:24;;;;;;;40.50;26.25;;;;;;;10.45;61.12;98730.00;6215694;23;20025;-92
2024/03/04 00:08:53;;;;;;;39.72;26.27;;;;;;;10.42;61.26;98736.31;6189337;23;20055;-91
2024/03/04 00:11:21;;;;;;;44.38;27.63;;;;;;;10.39;61.56;98740.97;6189188;23;20029;-91
2024/03/04 00:14:00;;;;;;;39.25;27.10;;;;;;;10.32;62.56;98737.91;6188831;23;20023;-92
2024/03/04 00:16:27;;;;;;;41.15;25.63;;;;;;;10.32;61.70;98737.09;6215584;23;20028;-92
2024/03/04 00:18:53;;;;;;;41.53;26.55;;;;;;;10.30;61.74;98751.19;6215067;23;20020;-91
2024/03/04 00:21:21;;;;;;;40.95;26.63;;;;;;;10.26;62.11;98749.72;6215472;23;20344;-91
2024/03/04 00:23:48;;;;;;;39.03;26.05;;;;;;;10.25;62.06;98750.66;6189093;23;20021;-91
2024/03/04 00:26:24;;;;;;;41.55;28.15;;;;;;;10.21;63.27;98745.75;6189146;23;20020;-91
2024/03/04 00:28:51;;;;;;;41.38;25.63;;;;;;;10.23;62.14;98756.97;6188724;23;20021;-91
2024/03/04 00:31:17;;;;;;;39.00;26.48;;;;;;;10.21;62.23;98751.81;6188825;23;20052;-91
2024/03/04 00:33:44;;;;;;;42.95;27.35;;;;;;;10.20;62.27;98755.41;6215250;23;20390;-93
2024/03/04 00:36:40;;;;;;;43.03;27.15;;;;;;;10.14;63.88;98759.31;6190307;23;20383;-93
2024/03/04 00:39:09;;;;;;;39.10;25.40;;;;;;;10.17;62.36;98760.91;6191279;23;20025;-92
2024/03/04 00:41:38;;;;;;;40.63;27.17;;;;;;;10.15;63.13;98761.03;6191312;23;20051;-92
2024/03/04 00:44:04;;;;;;;39.22;25.98;;;;;;;10.16;62.60;98761.84;6190794;23;20108;-93
2024/03/04 00:46:31;;;;;;;41.92;26.65;;;;;;;10.13;62.59;98756.81;6191279;23;20443;-93
2024/03/04 00:49:11;;;;;;;42.13;26.77;;;;;;;10.08;63.87;98759.75;6190691;23;20027;-92
2024/03/04 00:51:38;;;;;;;41.75;26.55;;;;;;;10.11;62.65;98756.06;6190434;23;20021;-93
2024/03/04 00:54:05;;;;;;;44.13;27.02;;;;;;;10.09;62.73;98758.81;6190779;23;20061;-91
2024/03/04 00:56:51;;;;;;;39.08;25.67;;;;;;;10.03;64.26;98754.00;6190984;23;20025;-92
2024/03/04 00:59:17;;;;;;;42.15;27.23;;;;;;;10.06;62.78;98751.16;6190508;23;20017;-92
2024/03/04 01:01:56;;;;;;;41.28;27.05;;;;;;;10.03;64.07;98760.09;6190888;23;20063;-93
2024/03/04 01:04:22;;;;;;;41.97;25.65;;;;;;;10.03;62.97;98757.44;6190742;23;20012;-92
2024/03/04 01:06:52;;;;;;;40.60;27.50;;;;;;;10.03;62.83;98754.81;6217329;23;20025;-92
2024/03/04 01:09:20;;;;;;;42.20;27.20;;;;;;;10.02;63.29;98745.25;6216686;23;20447;-92
2024/03/04 01:11:47;;;;;;;38.50;26.15;;;;;;;10.03;62.94;98754.81;6190920;23;20100;-92
2024/03/04 01:14:22;;;;;;;41.00;26.25;;;;;;;10.00;64.04;98752.44;6217112;23;20091;-92
2024/03/04 01:16:49;;;;;;;39.88;26.40;;;;;;;10.02;62.84;98747.88;6190745;23;20399;-92
2024/03/04 01:19:46;;;;;;;38.00;25.15;;;;;;;9.98;64.23;98756.94;6190765;23;20031;-92
2024/03/04 01:22:38;;;;;;;42.15;25.63;;;;;;;9.97;64.02;98760.53;6190427;23;20020;-91
2024/03/04 01:25:05;;;;;;;39.72;26.52;;;;;;;10.02;62.85;98763.66;6190795;23;20021;-92
2024/03/04 01:28:04;;;;;;;39.28;25.55;;;;;;;9.98;64.07;98766.63;6217073;23;20083;-92
2024/03/04 01:30:30;;;;;;;39.50;25.50;;;;;;;10.02;62.77;98773.34;6216439;23;20447;-93
2024/03/04 01:33:03;;;;;;;38.88;25.67;;;;;;;10.01;63.69;98776.91;6190580;23;20468;-93
2024/03/04 01:35:30;;;;;;;;;;;;;;;10.02;63.28;98784.69;6217364;23;20021;-92
2024/03/04 01:37:58;;;;;;;36.42;23.58;;;;;;;10.08;62.49;98787.84;6190188;23;19916;-92
2024/03/04 01:40:25;;;;;;;33.97;22.30;;;;;;;10.08;62.20;98795.72;6190311;23;20021;-93
2024/03/04 01:42:57;;;;;;;34.60;22.92;;;;;;;10.04;61.97;98795.13;6216855;23;20029;-92
2024/03/04 01:45:25;;;;;;;32.67;21.75;;;;;;;10.02;61.17;98797.84;6190377;23;20027;-92
2024/03/04 01:48:01;;;;;;;33.35;22.63;;;;;;;9.96;61.67;98795.66;6190352;23;20386;-92
2024/03/04 01:50:34;;;;;;;37.47;23.42;;;;;;;9.91;61.85;98798.59;6216338;23;20025;-92
2024/03/04 01:53:03;;;;;;;36.78;23.33;;;;;;;9.87;61.57;98804.19;6190636;23;20099;-92
2024/03/04 01:55:55;;;;;;;36.85;23.08;;;;;;;9.78;62.36;98803.03;6190479;23;20111;-92
2024/03/04 01:58:22;;;;;;;37.30;22.63;;;;;;;9.78;61.48;98814.41;6190514;23;20055;-92
2024/03/04 02:00:48;;;;;;;39.97;25.75;;;;;;;9.75;61.48;98824.25;6189781;23;20028;-93
2024/03/04 02:03:30;;;;;;;36.85;24.20;;;;;;;9.67;62.38;98816.06;6190358;23;20387;-92
2024/03/04 02:05:58;;;;;;;39.15;24.77;;;;;;;9.66;61.65;98823.13;6190586;23;20447;-92
2024/03/04 02:08:25;;;;;;;41.28;24.98;;;;;;;9.62;61.81;98825.13;6190348;23;20044;-92
2024/03/04 02:10:59;;;;;;;38.58;26.25;;;;;;;9.56;62.67;98830.78;6190187;23;20021;-92
2024/03/04 02:13:27;;;;;;;37.65;24.25;;;;;;;9.57;61.89;98835.09;6190464;23;20025;-92
2024/03/04 02:16:01;;;;;;;37.28;24.70;;;;;;;9.51;63.18;98830.25;6216823;23;20016;-92
2024/03/04 02:18:28;;;;;;;35.63;24.42;;;;;;;9.51;62.21;98827.63;6190367;23;20384;-92
2024/03/04 02:23:45;;;;;;;35.58;22.70;;;;;;;9.48;62.34;98828.69;6216612;23;20104;-92
2024/03/04 02:26:12;;;;;;;38.90;24.17;;;;;;;9.48;62.49;98826.06;6216654;23;20095;-92
2024/03/04 02:28:39;;;;;;;37.38;25.05;;;;;;;9.47;62.68;98836.66;6189675;23;20087;-93
2024/03/04 02:31:06;;;;;;;42.88;27.13;;;;;;;9.46;62.73;98835.81;6189606;23;20016;-92
2024/03/04 02:33:34;;;;;;;38.25;25.00;;;;;;;9.43;62.63;98835.19;6215988;23;20017;-93
2024/03/04 02:36:01;;;;;;;41.70;27.10;;;;;;;9.38;63.00;98838.09;6189794;23;20099;-92
2024/03/04 02:38:28;;;;;;;39.83;25.92;;;;;;;9.34;63.66;98840.09;6190002;23;20074;-93
2024/03/04 02:40:55;;;;;;;40.63;25.88;;;;;;;9.34;63.44;98836.63;6189507;23;20095;-92
2024/03/04 02:43:46;;;;;;;38.72;25.90;;;;;;;9.30;64.75;98843.06;6216445;23;20020;-93
2024/03/04 02:46:14;;;;;;;41.60;26.00;;;;;;;9.35;63.43;98833.91;6190044;23;20399;-93
2024/03/04 02:48:41;;;;;;;39.38;25.42;;;;;;;9.37;63.61;98836.44;6189930;23;20025;-93
2024/03/04 02:51:15;;;;;;;36.50;24.55;;;;;;;9.37;63.66;98834.66;6189558;23;20061;-92
2024/03/04 02:53:45;;;;;;;36.78;24.85;;;;;;;9.39;63.88;98840.63;6189701;23;20103;-93
2024/03/04 02:56:12;;;;;;;41.67;24.88;;;;;;;9.43;63.33;98843.91;6189399;23;20063;-92
2024/03/04 02:58:39;;;;;;;40.63;26.40;;;;;;;9.46;63.92;98840.25;6215998;23;20454;-92
2024/03/04 03:01:17;;;;;;;35.70;24.27;;;;;;;9.45;64.31;98857.78;6189002;23;20534;-92
2024/03/04 03:03:44;;;;;;;39.35;25.48;;;;;;;9.50;63.39;98858.31;6215748;23;20041;-93
2024/03/04 03:06:32;;;;;;;41.05;26.23;;;;;;;9.48;64.58;98868.09;6189742;23;20024;-93
2024/03/04 03:09:00;;;;;;;38.38;24.77;;;;;;;9.55;63.64;98871.13;6190177;23;20025;-92
2024/03/04 03:11:26;;;;;;;38.58;25.33;;;;;;;9.55;63.63;98873.78;6190012;23;20024;-92
2024/03/04 03:14:09;;;;;;;38.40;25.15;;;;;;;9.52;64.66;98880.06;6216674;23;20451;-93
2024/03/04 03:16:36;;;;;;;42.08;25.88;;;;;;;9.57;63.34;98881.56;6189904;23;20340;-92
2024/03/04 03:19:02;;;;;;;42.85;25.88;;;;;;;9.58;63.47;98891.09;6189368;23;20025;-92
2024/03/04 03:21:41;;;;;;;39.40;25.70;;;;;;;9.52;64.32;98887.09;6215982;23;20066;-92
2024/03/04 03:24:07;;;;;;;44.35;26.42;;;;;;;9.53;63.06;98891.41;6215584;23;20055;-92
2024/03/04 03:26:35;;;;;;;42.67;25.73;;;;;;;9.48;63.27;98896.97;6189637;23;20439;-92
2024/03/04 03:29:04;;;;;;;41.38;26.77;;;;;;;9.43;63.71;98898.22;6189143;23;20060;-93
2024/03/04 03:31:30;;;;;;;38.05;25.33;;;;;;;9.37;63.06;98908.19;6189527;23;20104;-93
2024/03/04 03:33:57;;;;;;;41.20;25.63;;;;;;;9.31;63.30;98905.13;6189757;23;20021;-93
2024/03/04 03:36:29;;;;;;;37.92;25.02;;;;;;;9.25;64.50;98924.75;6215452;23;20017;-92
2024/03/04 05:16:13;;;;;;;128.60;24.17;;;;;;;8.73;65.20;99024.22;6192549;23;20382;-91
2024/03/04 05:18:40;;;;;;;62.20;20.80;;;;;;;8.72;64.83;99026.00;6158618;23;20025;-91
2024/03/04 05:21:07;;;;;;;89.85;22.33;;;;;;;8.70;64.85;99027.03;6158975;23;20032;-87
2024/03/04 05:23:35;;;;;;;42.05;21.15;;;;;;;8.67;65.43;99032.50;6159454;23;20056;-87
2024/03/04 05:26:03;;;;;;;146.15;22.80;;;;;;;8.66;64.73;99036.88;6186669;23;20075;-88
2024/03/04 05:28:29;;;;;;;47.55;21.52;;;;;;;8.63;65.22;99031.81;6160774;23;20057;-87
2024/03/04 05:30:57;;;;;;;94.47;22.08;;;;;;;8.62;65.37;99042.38;6160131;23;20021;-87
2024/03/04 05:33:24;;;;;;;62.20;22.50;;;;;;;8.62;65.23;99045.88;6186745;23;20025;-87
2024/03/04 05:35:51;;;;;;;206.35;28.75;;;;;;;8.63;65.47;99050.19;6160271;23;20048;-88
2024/03/04 05:38:18;;;;;;;65.65;22.67;;;;;;;8.63;65.66;99059.84;6186953;23;20024;-87
2024/03/04 05:40:46;;;;;;;93.82;24.52;;;;;;;8.65;65.44;99057.97;6160944;23;20108;-87
2024/03/04 05:43:16;;;;;;;52.85;22.73;;;;;;;8.63;66.38;99057.22;6160709;23;20032;-88
2024/03/04 05:45:42;;;;;;;111.13;24.33;;;;;;;8.66;65.44;99064.88;6161068;23;20088;-88
2024/03/04 05:48:09;;;;;;;78.68;23.85;;;;;;;8.67;65.64;99074.47;6160532;23;20447;-88
2024/03/04 05:50:37;;;;;;;71.50;24.48;;;;;;;8.67;65.62;99077.09;6160872;23;20024;-88
2024/03/04 05:53:15;;;;;;;72.50;25.30;;;;;;;8.64;66.94;99080.75;6160347;23;20021;-88
2024/03/04 05:55:42;;;;;;;71.55;24.98;;;;;;;8.69;65.52;99089.19;6160539;23;20072;-88
2024/03/04 05:58:09;;;;;;;62.35;26.08;;;;;;;8.71;66.24;99094.34;6160278;23;20052;-88
2024/03/04 06:04:17;;;;;;;58.67;25.63;;;;;;;8.77;65.97;99095.72;6186271;23;20040;-88
2024/03/04 06:07:10;;;;;;;103.70;28.55;;;;;;;8.73;67.23;99100.31;6160219;23;20327;-88
2024/03/04 06:09:37;;;;;;;70.32;26.80;;;;;;;8.77;65.90;99088.72;6160002;23;20033;-87
2024/03/04 06:12:03;;;;;;;67.20;27.45;;;;;;;8.77;65.99;99096.56;6160160;23;20056;-88
2024/03/04 06:14:45;;;;;;;89.50;29.67;;;;;;;8.72;67.66;99096.84;6160417;23;20100;-88
2024/03/04 06:17:12;;;;;;;83.28;30.00;;;;;;;8.78;66.43;99103.50;6214629;23;20398;-88
2024/03/04 06:19:41;;;;;;;86.22;29.33;;;;;;;8.79;66.68;99094.69;6215110;23;20435;-88
2024/03/04 06:22:18;;;;;;;115.68;30.45;;;;;;;8.76;67.80;99094.03;6214958;23;20047;-88
2024/03/04 06:24:44;;;;;;;116.43;29.08;;;;;;;8.81;66.60;99098.09;6214978;23;20505;-88
2024/03/04 06:27:11;;;;;;;86.20;30.05;;;;;;;8.83;66.86;99100.63;6214576;23;20056;-88
2024/03/04 06:30:00;;;;;;;84.00;30.50;;;;;;;8.82;68.45;99106.81;6215975;23;20070;-88
2024/03/04 06:32:26;;;;;;;72.72;30.60;;;;;;;8.88;67.07;99103.81;6215146;23;20431;-88
2024/03/04 06:34:54;;;;;;;153.48;32.35;;;;;;;8.90;67.03;99112.41;6214626;23;20028;-87
2024/03/04 06:37:28;;;;;;;88.68;31.70;;;;;;;8.91;68.64;99110.66;6215757;23;20023;-88
2024/03/04 06:39:54;;;;;;;99.03;32.45;;;;;;;8.96;67.48;99119.94;6214399;23;20091;-87
2024/03/04 06:42:21;;;;;;;69.88;33.53;;;;;;;8.97;67.40;99113.75;6214275;23;20071;-87
2024/03/04 06:44:47;;;;;;;96.60;34.28;;;;;;;9.02;67.62;99112.63;6214563;23;20406;-87
2024/03/04 06:47:14;;;;;;;140.43;33.90;;;;;;;9.04;67.82;99119.47;6214278;23;20095;-87
2024/03/04 06:49:41;;;;;;;88.20;33.55;;;;;;;9.08;67.81;99120.13;6214003;23;20071;-87
2024/03/04 06:52:08;;;;;;;84.47;32.80;;;;;;;9.12;67.92;99121.59;6215653;23;20024;-87
2024/03/04 06:54:35;;;;;;;75.30;31.50;;;;;;;9.15;68.12;99134.56;6214733;23;20024;-87
2024/03/04 06:57:17;;;;;;;73.60;30.88;;;;;;;9.15;69.62;99137.19;6215863;23;20027;-87
2024/03/04 07:00:15;;;;;;;69.63;31.83;;;;;;;9.20;69.46;99135.13;6214311;23;20386;-87
2024/03/04 07:02:41;;;;;;;86.38;32.03;;;;;;;9.27;68.00;99129.50;6214362;23;20091;-87
2024/03/04 07:05:09;;;;;;;88.07;30.65;;;;;;;9.29;68.17;99133.72;6215398;23;20028;-87
2024/03/04 07:07:35;;;;;;;99.85;33.55;;;;;;;9.33;68.15;99139.59;6214774;23;20042;-88
2024/03/04 07:10:10;;;;;;;57.30;31.98;;;;;;;9.32;69.17;99151.91;6215037;23;20127;-87
2024/03/04 07:12:37;;;;;;;65.75;32.20;;;;;;;9.39;68.00;99147.13;6215312;23;20029;-88
2024/03/04 07:15:10;;;;;;;66.18;31.75;;;;;;;9.39;69.31;99149.75;6214129;23;20462;-88
2024/03/04 07:17:37;;;;;;;72.25;31.30;;;;;;;9.46;68.22;99150.22;6189481;23;20460;-88
2024/03/04 07:20:19;;;;;;;51.22;31.08;;;;;;;9.44;69.65;99150.31;6159623;23;20443;-88
2024/03/04 07:22:45;;;;;;;91.80;33.65;;;;;;;9.52;68.28;99161.19;6159509;23;20044;-88
2024/03/04 07:25:27;;;;;;;64.40;30.88;;;;;;;9.52;69.38;99166.44;6159412;23;20021;-87
2024/03/04 07:27:54;;;;;;;72.55;32.58;;;;;;;9.59;68.25;99169.53;6159642;23;20083;-87
2024/03/04 07:30:28;;;;;;;60.08;31.38;;;;;;;9.59;69.29;99173.94;6185513;23;20021;-88
2024/03/04 07:32:54;;;;;;;61.03;32.15;;;;;;;9.65;68.31;99173.56;6159591;23;20099;-88
2024/03/04 07:35:46;;;;;;;77.15;31.13;;;;;;;9.64;69.40;99169.22;6159118;23;20079;-88
2024/03/04 07:38:22;;;;;;;54.95;29.30;;;;;;;9.68;69.33;99170.72;6159421;23;20025;-88
2024/03/04 07:40:49;;;;;;;57.30;30.90;;;;;;;9.75;68.27;99176.44;6185257;23;20029;-88
2024/03/04 07:43:24;;;;;;;65.05;30.90;;;;;;;9.74;69.55;99180.88;6185368;23;20024;-88
2024/03/04 07:45:52;;;;;;;61.88;30.25;;;;;;;9.82;68.72;99184.78;6184562;23;20052;-88
2024/03/04 07:48:20;;;;;;;63.63;28.88;;;;;;;9.84;68.81;99178.50;6185203;23;20025;-88
2024/03/04 07:50:47;;;;;;;60.15;29.30;;;;;;;9.89;68.48;99183.44;6158929;23;20045;-88
2024/03/04 07:53:13;;;;;;;66.10;29.50;;;;;;;9.93;68.52;99176.22;6159021;23;20032;-88
2024/03/04 07:55:41;;;;;;;58.17;30.75;;;;;;;9.94;68.58;99188.44;6158928;23;20024;-88
2024/03/04 07:58:07;;;;;;;55.10;30.05;;;;;;;9.97;68.25;99185.59;6159116;23;20087;-88
2024/03/04 08:00:34;;;;;;;61.15;30.50;;;;;;;9.99;68.17;99196.88;6184796;23;20335;-88
2024/03/04 08:03:01;;;;;;;52.67;30.48;;;;;;;10.00;68.36;99199.41;6159045;23;20080;-88
2024/03/04 08:05:28;;;;;;;71.05;31.40;;;;;;;10.02;68.32;99205.38;6184930;23;20331;-88
2024/03/04 08:07:56;;;;;;;76.05;30.38;;;;;;;10.03;68.19;99211.50;6158841;23;20048;-88
2024/03/04 08:10:30;;;;;;;65.57;30.55;;;;;;;10.02;68.97;99220.34;6184585;23;20100;-88
2024/03/04 08:12:57;;;;;;;59.05;29.23;;;;;;;10.05;68.11;99212.22;6184827;23;20032;-88
2024/03/04 08:15:24;;;;;;;53.08;29.92;;;;;;;10.06;68.28;99220.97;6158609;23;20017;-88
2024/03/04 08:17:51;;;;;;;62.80;30.25;;;;;;;10.06;68.38;99221.84;6191413;23;20355;-88
2024/03/04 08:20:41;;;;;;;62.63;29.92;;;;;;;10.06;69.38;99220.97;6160376;23;20029;-88
2024/03/04 08:23:07;;;;;;;54.42;28.25;;;;;;;10.11;68.24;99221.53;6184970;23;20093;-88
2024/03/04 08:25:33;;;;;;;47.78;29.98;;;;;;;10.12;68.40;99223.22;6185088;23;20027;-88
2024/03/04 08:28:09;;;;;;;50.03;28.10;;;;;;;10.13;69.53;99222.28;6185131;23;20027;-88
2024/03/04 08:30:49;;;;;;;50.15;28.70;;;;;;;10.20;68.49;99223.56;6185019;23;20027;-88
2024/03/04 08:33:16;;;;;;;57.72;30.33;;;;;;;10.22;68.72;99224.31;6158962;23;20095;-88
2024/03/04 08:36:04;;;;;;;52.05;29.42;;;;;;;10.21;69.48;99232.31;6185149;23;20025;-88
2024/03/04 08:38:30;;;;;;;50.38;29.55;;;;;;;10.27;68.35;99238.03;6184791;23;20025;-88
2024/03/04 08:40:57;;;;;;;56.60;28.35;;;;;;;10.31;68.66;99236.03;6158657;23;20103;-88
2024/03/04 08:43:40;;;;;;;61.53;29.17;;;;;;;10.30;69.77;99244.88;6159143;23;20447;-88
2024/03/04 08:46:06;;;;;;;67.30;27.52;;;;;;;10.38;68.51;99247.00;6158381;23;20076;-88
2024/03/04 08:48:33;;;;;;;51.97;26.90;;;;;;;10.40;68.54;99242.50;6158740;23;20088;-88
2024/03/04 08:51:22;;;;;;;64.70;27.40;;;;;;;10.39;69.44;99256.59;6158919;23;20099;-88
2024/03/04 08:53:48;;;;;;;62.38;27.83;;;;;;;10.45;68.50;99263.25;6185283;23;20060;-88
2024/03/04 08:56:21;;;;;;;56.60;26.50;;;;;;;10.43;68.97;99261.53;6159044;23;20469;-87
2024/03/04 08:58:47;;;;;;;64.38;28.10;;;;;;;10.47;68.24;99256.94;6160788;23;20403;-88
2024/03/04 09:01:32;;;;;;;63.25;28.52;;;;;;;10.43;69.11;99269.44;6160384;23;20063;-88
2024/03/04 09:03:59;;;;;;;54.30;28.38;;;;;;;10.47;68.22;99262.22;6161076;23;20451;-88
2024/03/04 09:06:33;;;;;;;112.07;28.17;;;;;;;10.45;69.08;99258.84;6160313;23;20028;-88
2024/03/04 09:08:59;;;;;;;49.25;25.73;;;;;;;10.49;68.49;99260.34;6160875;23;20116;-88
2024/03/04 09:11:26;;;;;;;75.78;26.88;;;;;;;10.49;68.43;99265.59;6161072;23;20084;-88
2024/03/04 09:14:09;;;;;;;57.70;28.13;;;;;;;10.48;69.38;99265.69;6160821;23;20444;-88
2024/03/04 09:16:42;;;;;;;72.07;27.92;;;;;;;10.51;69.24;99270.78;6168474;23;20063;-88
2024/03/04 09:19:10;;;;;;;48.05;26.63;;;;;;;10.53;68.50;99268.88;6216272;23;20017;-87
2024/03/04 09:21:37;;;;;;;66.53;27.52;;;;;;;10.54;68.66;99262.66;6216802;23;20505;-87
2024/03/04 09:24:03;;;;;;;54.60;25.92;;;;;;;10.55;68.41;99257.31;6215244;23;20056;-88
2024/03/04 09:26:30;;;;;;;61.90;26.98;;;;;;;10.57;68.66;99264.28;6214937;23;20047;-88
2024/03/04 09:28:58;;;;;;;49.08;25.75;;;;;;;10.59;69.42;99257.09;6215426;23;20082;-88
2024/03/04 09:31:25;;;;;;;51.05;28.02;;;;;;;10.64;69.15;99252.38;6215262;23;20060;-88
2024/03/04 09:33:52;;;;;;;53.30;26.88;;;;;;;10.68;69.02;99253.88;6215328;23;20351;-88
2024/03/04 09:36:26;;;;;;;54.08;26.52;;;;;;;10.69;69.75;99256.41;6216848;23;20331;-88
2024/03/04 10:48:59;;;;;;;42.65;24.95;;;;;;;11.95;67.70;99283.16;6240846;23;20020;-96
2024/03/04 10:51:28;;;;;;;48.05;26.85;;;;;;;12.00;67.70;99283.66;6246437;23;20441;-96
2024/03/04 10:53:59;;;;;;;51.47;28.23;;;;;;;12.02;67.64;99284.41;6246061;23;20027;-96
2024/03/04 10:56:31;;;;;;;48.80;27.70;;;;;;;12.06;67.58;99285.06;6245485;23;20044;-96
2024/03/04 10:59:01;;;;;;;49.83;27.52;;;;;;;12.10;67.77;99283.88;6246349;23;20073;-96
2024/03/04 11:01:32;;;;;;;45.70;27.08;;;;;;;12.14;67.85;99285.34;6246520;23;20119;-96
2024/03/04 11:04:04;;;;;;;49.38;27.80;;;;;;;12.20;67.73;99286.72;6246187;23;20012;-96
2024/03/04 11:06:34;;;;;;;42.28;24.75;;;;;;;12.23;67.68;99286.50;6246379;23;20023;-96
2024/03/04 11:09:05;;;;;;;42.55;25.65;;;;;;;12.25;67.50;99290.72;6246084;23;20437;-96
2024/03/04 11:11:42;;;;;;;41.38;24.58;;;;;;;12.25;67.18;99287.22;6245560;23;20020;-96
2024/03/04 11:14:17;;;;;;;41.88;25.08;;;;;;;12.26;67.18;99288.91;6248740;23;20035;-96
2024/03/04 11:16:59;;;;;;;40.00;25.13;;;;;;;12.24;67.10;99289.03;6245901;23;20020;-96
2024/03/04 11:19:37;;;;;;;46.20;26.35;;;;;;;12.29;66.73;99293.16;6245854;23;20493;-96
2024/03/04 11:22:04;;;;;;;44.58;25.58;;;;;;;12.30;66.83;99298.28;6245690;23;20019;-96
2024/03/04 11:24:35;;;;;;;46.85;27.05;;;;;;;12.27;66.77;99298.53;6245624;23;20026;-96
2024/03/04 11:27:03;;;;;;;45.15;26.77;;;;;;;12.27;66.72;99301.16;6245606;23;20020;-96
2024/03/04 11:29:31;;;;;;;43.67;26.17;;;;;;;12.24;66.64;99301.38;6245875;23;20099;-96
2024/03/04 11:31:59;;;;;;;48.88;27.13;;;;;;;12.21;66.48;99306.88;6245886;23;20023;-96
2024/03/04 11:34:29;;;;;;;56.42;30.67;;;;;;;12.19;66.56;99314.06;6246125;23;20020;-96
2024/03/04 11:37:00;;;;;;;50.72;29.67;;;;;;;12.11;66.29;99309.31;6245228;23;20020;-96
2024/03/04 11:46:12;;;;;;;55.90;30.90;;;;;;;11.95;66.78;99317.44;6215676;23;20023;-90
2024/03/04 11:49:18;;;;;;;60.42;33.35;;;;;;;11.88;67.22;99319.66;6123646;23;20092;-90
2024/03/04 11:51:46;;;;;;;58.42;32.28;;;;;;;11.87;66.72;99320.63;6208677;23;20051;-90
2024/03/04 11:54:13;;;;;;;55.63;29.08;;;;;;;11.83;66.79;99319.13;6214646;22;20020;-88
2024/03/04 11:56:42;;;;;;;52.08;28.67;;;;;;;11.78;67.00;99314.16;6212822;23;20024;-89
2024/03/04 11:59:12;;;;;;;45.83;25.75;;;;;;;11.74;67.32;99325.91;6212757;23;20044;-88
2024/03/04 12:01:39;;;;;;;46.13;26.50;;;;;;;11.74;67.26;99323.28;6213498;23;20020;-87
2024/03/04 12:04:06;;;;;;;46.33;26.33;;;;;;;11.71;67.33;99332.22;6214223;23;20044;-88
2024/03/04 12:06:34;;;;;;;45.88;26.38;;;;;;;11.69;67.21;99334.13;6213760;23;20047;-87
2024/03/04 12:09:04;;;;;;;50.72;26.33;;;;;;;11.67;67.67;99335.19;6213692;23;20017;-88
2024/03/04 12:11:51;;;;;;;49.13;26.50;;;;;;;11.67;67.48;99340.44;6215265;23;20024;-88
2024/03/04 12:14:17;;;;;;;45.05;24.98;;;;;;;11.66;67.53;99344.03;6213710;23;20020;-88
2024/03/04 12:16:44;;;;;;;48.03;25.95;;;;;;;11.62;67.68;99338.13;6215185;23;20017;-88
2024/03/04 12:19:11;;;;;;;48.88;26.52;;;;;;;11.59;67.91;99339.16;6214876;23;20021;-88
2024/03/04 12:21:38;;;;;;;48.80;26.25;;;;;;;11.58;67.89;99342.75;6213555;23;20051;-88
2024/03/04 12:24:05;;;;;;;50.47;26.88;;;;;;;11.58;67.92;99341.91;6214199;23;20024;-88
2024/03/04 12:26:32;;;;;;;49.10;27.08;;;;;;;11.57;68.05;99340.22;6212712;23;20017;-88
2024/03/04 12:29:00;;;;;;;47.92;27.42;;;;;;;11.56;68.15;99344.66;6213742;23;20413;-88
2024/03/04 12:31:28;;;;;;;47.13;26.50;;;;;;;11.57;68.17;99343.72;6213372;23;20079;-88
2024/03/04 12:33:56;;;;;;;45.55;24.50;;;;;;;11.57;68.45;99345.50;6212503;23;20020;-88
2024/03/04 12:36:24;;;;;;;50.65;26.98;;;;;;;11.58;68.29;99342.75;6214686;23;20075;-89
2024/03/04 12:38:52;;;;;;;47.60;25.35;;;;;;;11.58;68.20;99341.91;6215133;23;20082;-88
2024/03/04 12:41:20;;;;;;;45.05;25.70;;;;;;;11.59;68.37;99347.06;6212663;23;20056;-88
2024/03/04 12:43:50;;;;;;;47.00;26.52;;;;;;;11.59;68.65;99341.81;6212725;23;20031;-88
2024/03/04 12:46:18;;;;;;;46.08;25.98;;;;;;;11.60;68.41;99343.50;6212840;23;20013;-88
2024/03/04 12:48:45;;;;;;;49.05;27.15;;;;;;;11.63;68.30;99345.09;6212404;23;20079;-88
2024/03/04 12:51:13;;;;;;;48.80;27.27;;;;;;;11.64;68.29;99348.56;6212616;23;20060;-88
2024/03/04 12:53:40;;;;;;;50.33;27.15;;;;;;;11.65;68.09;99352.88;6217138;23;20020;-88
2024/03/04 12:56:07;;;;;;;44.85;25.98;;;;;;;11.65;68.26;99352.88;6242892;23;20024;-88
2024/03/04 12:58:34;;;;;;;49.92;27.02;;;;;;;11.65;68.09;99353.72;6218531;23;20020;-88
2024/03/04 13:01:15;;;;;;;47.10;26.58;;;;;;;11.63;68.81;99357.44;6217569;23;20028;-88
2024/03/04 13:03:43;;;;;;;49.95;25.67;;;;;;;11.66;67.86;99359.88;6218536;23;20512;-88
2024/03/04 13:06:11;;;;;;;44.60;24.65;;;;;;;11.65;67.84;99358.16;6218913;23;20074;-87
2024/03/04 13:08:38;;;;;;;40.53;24.63;;;;;;;11.62;67.93;99363.66;6218224;23;20028;-87
2024/03/04 13:11:04;;;;;;;53.85;25.13;;;;;;;11.60;67.78;99358.47;6244163;23;20074;-88
2024/03/04 13:13:31;;;;;;;51.72;25.20;;;;;;;11.57;67.85;99361.31;6218228;23;20099;-87
2024/03/04 13:15:58;;;;;;;45.30;23.83;;;;;;;11.54;68.14;99367.63;6243210;23;20028;-88
2024/03/04 13:18:25;;;;;;;47.03;24.13;;;;;;;11.53;68.18;99363.31;6217926;23;20523;-88
2024/03/04 13:20:52;;;;;;;46.88;23.77;;;;;;;11.51;68.41;99359.09;6218147;23;20487;-88
2024/03/04 13:23:19;;;;;;;41.10;22.80;;;;;;;11.51;68.47;99359.09;6244935;23;20086;-88
2024/03/04 13:25:46;;;;;;;47.35;23.65;;;;;;;11.53;68.66;99365.09;6245057;23;20043;-88
2024/03/04 13:28:12;;;;;;;44.20;23.73;;;;;;;11.52;68.56;99364.28;6218238;23;20059;-87
2024/03/04 13:30:39;;;;;;;43.90;24.38;;;;;;;11.52;68.59;99366.06;6244945;23;20024;-87
2024/03/04 13:33:07;;;;;;;45.45;25.00;;;;;;;11.52;68.62;99359.00;6218677;23;20074;-88
2024/03/04 13:35:33;;;;;;;44.92;23.80;;;;;;;11.52;68.57;99358.16;6219365;23;20027;-88
2024/03/04 13:38:00;;;;;;;43.35;24.23;;;;;;;11.53;68.74;99363.31;6245625;23;20016;-88
2024/03/04 13:40:27;;;;;;;44.33;24.98;;;;;;;11.54;68.72;99361.50;6219058;23;20028;-88
2024/03/04 13:42:54;;;;;;;44.63;25.05;;;;;;;11.53;68.80;99352.78;6218793;23;20020;-87
2024/03/04 13:45:33;;;;;;;53.45;26.15;;;;;;;11.54;68.67;99359.72;6222662;23;20048;-87
2024/03/04 13:48:01;;;;;;;41.83;24.10;;;;;;;11.54;68.94;99362.38;6245997;23;20103;-88
2024/03/04 13:50:27;;;;;;;51.75;27.05;;;;;;;11.54;69.04;99359.72;6218738;23;20023;-88
2024/03/04 13:52:55;;;;;;;47.50;26.33;;;;;;;11.56;68.87;99365.72;6219302;23;20038;-87
2024/03/04 13:55:23;;;;;;;51.65;25.55;;;;;;;11.58;68.97;99368.28;6220013;23;20111;-87
2024/03/04 13:57:51;;;;;;;47.53;24.63;;;;;;;11.57;68.69;99362.16;6219960;23;20020;-87
2024/03/04 14:00:18;;;;;;;49.28;24.05;;;;;;;11.56;68.62;99371.00;6219347;23;20508;-87
2024/03/04 14:02:44;;;;;;;50.40;24.98;;;;;;;11.57;68.66;99362.16;6244709;23;20016;-87
2024/03/04 14:05:13;;;;;;;47.33;23.67;;;;;;;11.57;68.72;99372.72;6218960;23;20070;-88
2024/03/04 14:07:43;;;;;;;47.13;24.15;;;;;;;11.58;68.81;99368.28;6219489;23;20023;-88
2024/03/04 14:10:10;;;;;;;49.60;25.30;;;;;;;11.58;68.75;99360.34;6218606;23;20039;-88
2024/03/04 14:12:37;;;;;;;49.00;24.98;;;;;;;11.57;68.68;99356.03;6245092;23;20022;-88
2024/03/04 14:15:04;;;;;;;44.47;23.63;;;;;;;11.58;68.99;99365.63;6245453;23;20028;-88
2024/03/04 14:17:31;;;;;;;48.83;23.88;;;;;;;11.58;69.26;99360.34;6246143;23;20020;-87
2024/03/04 14:20:01;;;;;;;53.50;24.73;;;;;;;11.59;69.13;99359.44;6245051;23;20024;-88
2024/03/04 14:22:27;;;;;;;50.88;25.00;;;;;;;11.60;69.01;99356.66;6219582;23;20024;-87
2024/03/04 14:24:54;;;;;;;75.35;25.92;;;;;;;11.62;69.14;99363.66;6220016;23;20099;-88
2024/03/04 14:27:21;;;;;;;44.17;23.73;;;;;;;11.60;68.86;99356.66;6219378;23;20103;-87
2024/03/04 14:29:47;;;;;;;53.55;26.27;;;;;;;11.60;68.87;99359.31;6245424;23;20024;-88
2024/03/04 14:32:14;;;;;;;47.97;24.27;;;;;;;11.59;68.82;99359.44;6219199;23;20186;-88
2024/03/04 14:34:41;;;;;;;48.83;24.67;;;;;;;11.58;68.87;99361.22;6245779;23;20432;-87